Startpagina
METAR-TAF:

METAR-TAF

Vliegvelden :

Aeropuerto Juan Mendoza

Oruro, Bolivia

breedte: 17-58S, lengte: 067-04W, hoogte: 3072 m

METAR: ontbreekt

Tijdstip: 19:40 (23:40 UTC)

Verwachting

Dit bericht is 31 uur en het 40 minuten geleden gemaakt, om 16:00 UTC
Verwachting geldig van 30 om 18 UTC tot 31 om 18 UTC
Wind 10 kt uit het zuidwesten
Zicht 10 km of meer
Weinig wolken op 2500 ft
Wijzigt naar
van 31 om 01 UTC tot 31 om 03 UTC
Wind 7 kt uit het oostnoordoosten
Wijzigt naar
van 31 om 14 UTC tot 31 om 17 UTC
Wind 12 kt uit het noordnoordwesten

TAF: SLOR 301600Z 3018/3118 22010KT 9999 FEW025 TX18/3020Z TNM07/3110Z BECMG 3101/3103 06007KT BECMG 3114/3117 34012KT

Waarnemingen en weersverwachtingen van meer dan 4000 vliegvelden (METAR en TAF).

De beschikbare stations zijn de gele en rode punten op de kaart.

Ga met uw muis naar het station om de naam te zien.

Klik dan om waarnemingen en weersverwachtingen te zien.

kaart wijzigen: klik op de groene knoppen met een zwart kruis om in te zoomen, op de groene knop met een streepje om uit te zoomen of op de groene pijlen voor aangrenzende kaarten.


METAR-TAF: